sensor_id;sensor_type;location;lat;lon;timestamp;P1;durP1;ratioP1;P2;durP2;ratioP2
72261;SDS011;60173;52.112;8.648;2023-06-10T00:02:11;11.35;;;5.47;;
72261;SDS011;60173;52.112;8.648;2023-06-10T00:04:37;7.85;;;5.35;;
72261;SDS011;60173;52.112;8.648;2023-06-10T00:07:04;12.05;;;5.90;;
72261;SDS011;60173;52.112;8.648;2023-06-10T00:09:30;12.05;;;6.07;;
72261;SDS011;60173;52.112;8.648;2023-06-10T00:11:57;11.95;;;5.85;;
72261;SDS011;60173;52.112;8.648;2023-06-10T00:14:23;9.30;;;5.72;;
72261;SDS011;60173;52.112;8.648;2023-06-10T00:16:49;12.57;;;6.25;;
72261;SDS011;60173;52.112;8.648;2023-06-10T00:19:16;11.07;;;5.65;;
72261;SDS011;60173;52.112;8.648;2023-06-10T00:21:42;9.18;;;5.50;;
72261;SDS011;60173;52.112;8.648;2023-06-10T00:24:09;11.60;;;6.18;;
72261;SDS011;60173;52.112;8.648;2023-06-10T00:26:35;10.80;;;6.35;;
72261;SDS011;60173;52.112;8.648;2023-06-10T00:29:02;11.13;;;6.13;;
72261;SDS011;60173;52.112;8.648;2023-06-10T00:31:28;11.90;;;6.28;;
72261;SDS011;60173;52.112;8.648;2023-06-10T00:33:54;15.27;;;6.72;;
72261;SDS011;60173;52.112;8.648;2023-06-10T00:36:21;14.55;;;7.65;;
72261;SDS011;60173;52.112;8.648;2023-06-10T00:38:47;15.55;;;6.72;;
72261;SDS011;60173;52.112;8.648;2023-06-10T00:41:14;10.20;;;7.03;;
72261;SDS011;60173;52.112;8.648;2023-06-10T00:43:40;11.68;;;7.38;;
72261;SDS011;60173;52.112;8.648;2023-06-10T00:46:06;10.43;;;7.22;;
72261;SDS011;60173;52.112;8.648;2023-06-10T00:48:33;13.85;;;7.10;;
72261;SDS011;60173;52.112;8.648;2023-06-10T00:51:00;13.07;;;7.53;;
72261;SDS011;60173;52.112;8.648;2023-06-10T00:53:26;11.55;;;7.57;;
72261;SDS011;60173;52.112;8.648;2023-06-10T00:55:54;11.60;;;7.63;;
72261;SDS011;60173;52.112;8.648;2023-06-10T00:58:20;11.77;;;7.82;;
72261;SDS011;60173;52.112;8.648;2023-06-10T01:00:47;14.52;;;7.65;;
72261;SDS011;60173;52.112;8.648;2023-06-10T01:03:13;11.18;;;7.30;;
72261;SDS011;60173;52.112;8.648;2023-06-10T01:05:40;14.38;;;8.15;;
72261;SDS011;60173;52.112;8.648;2023-06-10T01:08:09;16.50;;;8.52;;
72261;SDS011;60173;52.112;8.648;2023-06-10T01:10:53;13.23;;;8.00;;
72261;SDS011;60173;52.112;8.648;2023-06-10T01:13:23;14.38;;;8.25;;
72261;SDS011;60173;52.112;8.648;2023-06-10T01:15:51;12.35;;;7.72;;
72261;SDS011;60173;52.112;8.648;2023-06-10T01:18:18;16.98;;;7.75;;
72261;SDS011;60173;52.112;8.648;2023-06-10T01:20:44;15.68;;;8.10;;
72261;SDS011;60173;52.112;8.648;2023-06-10T01:23:11;12.80;;;7.43;;
72261;SDS011;60173;52.112;8.648;2023-06-10T01:25:38;10.75;;;7.80;;
72261;SDS011;60173;52.112;8.648;2023-06-10T01:28:22;14.35;;;8.13;;
72261;SDS011;60173;52.112;8.648;2023-06-10T01:31:00;15.10;;;8.02;;
72261;SDS011;60173;52.112;8.648;2023-06-10T01:33:55;22.23;;;8.13;;
72261;SDS011;60173;52.112;8.648;2023-06-10T01:36:21;13.38;;;7.90;;
72261;SDS011;60173;52.112;8.648;2023-06-10T01:38:49;13.20;;;8.02;;
72261;SDS011;60173;52.112;8.648;2023-06-10T01:41:17;12.88;;;7.60;;
72261;SDS011;60173;52.112;8.648;2023-06-10T01:43:44;14.52;;;7.80;;
72261;SDS011;60173;52.112;8.648;2023-06-10T01:46:12;15.80;;;8.05;;
72261;SDS011;60173;52.112;8.648;2023-06-10T01:48:38;11.75;;;7.10;;
72261;SDS011;60173;52.112;8.648;2023-06-10T01:51:05;13.68;;;7.60;;
72261;SDS011;60173;52.112;8.648;2023-06-10T01:53:31;13.05;;;7.60;;
72261;SDS011;60173;52.112;8.648;2023-06-10T01:55:58;13.10;;;7.43;;
72261;SDS011;60173;52.112;8.648;2023-06-10T01:58:24;13.35;;;7.45;;
72261;SDS011;60173;52.112;8.648;2023-06-10T02:00:50;13.32;;;7.00;;
72261;SDS011;60173;52.112;8.648;2023-06-10T02:03:17;10.98;;;6.57;;
72261;SDS011;60173;52.112;8.648;2023-06-10T02:05:43;11.55;;;6.55;;
72261;SDS011;60173;52.112;8.648;2023-06-10T02:08:10;16.98;;;6.97;;
72261;SDS011;60173;52.112;8.648;2023-06-10T02:10:36;13.32;;;6.90;;
72261;SDS011;60173;52.112;8.648;2023-06-10T02:13:03;11.27;;;6.63;;
72261;SDS011;60173;52.112;8.648;2023-06-10T02:15:29;10.45;;;6.60;;
72261;SDS011;60173;52.112;8.648;2023-06-10T02:17:55;15.77;;;6.13;;
72261;SDS011;60173;52.112;8.648;2023-06-10T02:20:22;10.95;;;6.70;;
72261;SDS011;60173;52.112;8.648;2023-06-10T02:22:48;13.40;;;7.00;;
72261;SDS011;60173;52.112;8.648;2023-06-10T02:25:15;10.38;;;6.40;;
72261;SDS011;60173;52.112;8.648;2023-06-10T02:27:41;13.95;;;7.03;;
72261;SDS011;60173;52.112;8.648;2023-06-10T02:30:08;14.10;;;6.63;;
72261;SDS011;60173;52.112;8.648;2023-06-10T02:32:34;13.48;;;7.03;;
72261;SDS011;60173;52.112;8.648;2023-06-10T02:35:01;11.65;;;7.05;;
72261;SDS011;60173;52.112;8.648;2023-06-10T02:37:27;10.88;;;6.50;;
72261;SDS011;60173;52.112;8.648;2023-06-10T02:39:54;12.35;;;6.53;;
72261;SDS011;60173;52.112;8.648;2023-06-10T02:42:20;11.05;;;7.18;;
72261;SDS011;60173;52.112;8.648;2023-06-10T02:44:46;14.50;;;7.88;;
72261;SDS011;60173;52.112;8.648;2023-06-10T02:47:13;14.45;;;7.03;;
72261;SDS011;60173;52.112;8.648;2023-06-10T02:49:39;15.93;;;7.45;;
72261;SDS011;60173;52.112;8.648;2023-06-10T02:52:06;18.73;;;7.28;;
72261;SDS011;60173;52.112;8.648;2023-06-10T02:54:32;15.65;;;7.25;;
72261;SDS011;60173;52.112;8.648;2023-06-10T02:56:59;14.10;;;7.40;;
72261;SDS011;60173;52.112;8.648;2023-06-10T02:59:25;14.68;;;7.00;;
72261;SDS011;60173;52.112;8.648;2023-06-10T03:01:51;14.23;;;7.97;;
72261;SDS011;60173;52.112;8.648;2023-06-10T03:04:18;13.07;;;6.70;;
72261;SDS011;60173;52.112;8.648;2023-06-10T03:06:45;11.18;;;7.15;;
72261;SDS011;60173;52.112;8.648;2023-06-10T03:09:11;12.35;;;7.20;;
72261;SDS011;60173;52.112;8.648;2023-06-10T03:11:37;14.43;;;6.80;;
72261;SDS011;60173;52.112;8.648;2023-06-10T03:14:04;13.18;;;7.18;;
72261;SDS011;60173;52.112;8.648;2023-06-10T03:16:30;14.20;;;6.63;;
72261;SDS011;60173;52.112;8.648;2023-06-10T03:18:57;17.25;;;6.13;;
72261;SDS011;60173;52.112;8.648;2023-06-10T03:21:23;10.68;;;7.00;;
72261;SDS011;60173;52.112;8.648;2023-06-10T03:23:49;11.88;;;6.38;;
72261;SDS011;60173;52.112;8.648;2023-06-10T03:26:16;11.57;;;6.10;;
72261;SDS011;60173;52.112;8.648;2023-06-10T03:28:42;12.20;;;6.07;;
72261;SDS011;60173;52.112;8.648;2023-06-10T03:31:09;10.73;;;7.38;;
72261;SDS011;60173;52.112;8.648;2023-06-10T03:33:35;13.60;;;6.72;;
72261;SDS011;60173;52.112;8.648;2023-06-10T03:36:02;12.70;;;6.55;;
72261;SDS011;60173;52.112;8.648;2023-06-10T03:38:28;13.35;;;6.20;;
72261;SDS011;60173;52.112;8.648;2023-06-10T03:40:54;13.05;;;6.80;;
72261;SDS011;60173;52.112;8.648;2023-06-10T03:43:21;12.35;;;5.75;;
72261;SDS011;60173;52.112;8.648;2023-06-10T03:45:47;9.73;;;5.90;;
72261;SDS011;60173;52.112;8.648;2023-06-10T03:48:14;14.27;;;6.55;;
72261;SDS011;60173;52.112;8.648;2023-06-10T03:50:40;10.20;;;6.13;;
72261;SDS011;60173;52.112;8.648;2023-06-10T03:53:06;11.82;;;5.80;;
72261;SDS011;60173;52.112;8.648;2023-06-10T03:55:33;10.35;;;6.20;;
72261;SDS011;60173;52.112;8.648;2023-06-10T03:57:59;13.70;;;6.35;;
72261;SDS011;60173;52.112;8.648;2023-06-10T04:00:26;10.40;;;5.70;;
72261;SDS011;60173;52.112;8.648;2023-06-10T04:02:52;10.95;;;6.10;;
72261;SDS011;60173;52.112;8.648;2023-06-10T04:05:19;11.30;;;5.68;;
72261;SDS011;60173;52.112;8.648;2023-06-10T04:07:46;13.38;;;5.88;;
72261;SDS011;60173;52.112;8.648;2023-06-10T04:10:12;14.98;;;6.18;;
72261;SDS011;60173;52.112;8.648;2023-06-10T04:12:38;12.85;;;5.88;;
72261;SDS011;60173;52.112;8.648;2023-06-10T04:15:05;13.32;;;6.50;;
72261;SDS011;60173;52.112;8.648;2023-06-10T04:17:33;9.40;;;5.60;;
72261;SDS011;60173;52.112;8.648;2023-06-10T04:19:59;12.88;;;6.05;;
72261;SDS011;60173;52.112;8.648;2023-06-10T04:22:26;12.63;;;5.65;;
72261;SDS011;60173;52.112;8.648;2023-06-10T04:24:52;11.27;;;5.72;;
72261;SDS011;60173;52.112;8.648;2023-06-10T04:27:19;11.45;;;5.53;;
72261;SDS011;60173;52.112;8.648;2023-06-10T04:29:45;15.77;;;5.72;;
72261;SDS011;60173;52.112;8.648;2023-06-10T04:32:12;8.75;;;5.38;;
72261;SDS011;60173;52.112;8.648;2023-06-10T04:34:38;8.88;;;5.00;;
72261;SDS011;60173;52.112;8.648;2023-06-10T04:37:04;9.95;;;5.47;;
72261;SDS011;60173;52.112;8.648;2023-06-10T04:39:31;10.60;;;5.97;;
72261;SDS011;60173;52.112;8.648;2023-06-10T04:41:59;9.48;;;4.75;;
72261;SDS011;60173;52.112;8.648;2023-06-10T04:44:25;11.55;;;5.15;;
72261;SDS011;60173;52.112;8.648;2023-06-10T04:46:51;9.55;;;5.45;;
72261;SDS011;60173;52.112;8.648;2023-06-10T04:49:18;14.25;;;5.22;;
72261;SDS011;60173;52.112;8.648;2023-06-10T04:51:44;11.63;;;5.03;;
72261;SDS011;60173;52.112;8.648;2023-06-10T04:54:11;13.20;;;4.90;;
72261;SDS011;60173;52.112;8.648;2023-06-10T04:56:37;13.48;;;5.13;;
72261;SDS011;60173;52.112;8.648;2023-06-10T04:59:03;10.57;;;4.65;;
72261;SDS011;60173;52.112;8.648;2023-06-10T05:01:30;11.32;;;4.85;;
72261;SDS011;60173;52.112;8.648;2023-06-10T05:03:56;10.15;;;5.22;;
72261;SDS011;60173;52.112;8.648;2023-06-10T05:06:23;10.98;;;5.13;;
72261;SDS011;60173;52.112;8.648;2023-06-10T05:08:49;11.18;;;5.63;;
72261;SDS011;60173;52.112;8.648;2023-06-10T05:11:15;10.52;;;5.40;;
72261;SDS011;60173;52.112;8.648;2023-06-10T05:13:42;8.57;;;4.97;;
72261;SDS011;60173;52.112;8.648;2023-06-10T05:16:08;10.40;;;5.75;;
72261;SDS011;60173;52.112;8.648;2023-06-10T05:18:35;9.55;;;5.25;;
72261;SDS011;60173;52.112;8.648;2023-06-10T05:21:01;11.95;;;5.63;;
72261;SDS011;60173;52.112;8.648;2023-06-10T05:23:28;9.63;;;5.60;;
72261;SDS011;60173;52.112;8.648;2023-06-10T05:25:54;10.02;;;5.03;;
72261;SDS011;60173;52.112;8.648;2023-06-10T05:28:21;8.77;;;5.00;;
72261;SDS011;60173;52.112;8.648;2023-06-10T05:30:47;11.20;;;5.10;;
72261;SDS011;60173;52.112;8.648;2023-06-10T05:33:13;8.93;;;4.43;;
72261;SDS011;60173;52.112;8.648;2023-06-10T05:35:40;11.05;;;5.57;;
72261;SDS011;60173;52.112;8.648;2023-06-10T05:38:06;9.07;;;4.35;;
72261;SDS011;60173;52.112;8.648;2023-06-10T05:40:33;12.40;;;5.35;;
72261;SDS011;60173;52.112;8.648;2023-06-10T05:42:59;12.05;;;5.57;;
72261;SDS011;60173;52.112;8.648;2023-06-10T05:45:26;10.15;;;4.72;;
72261;SDS011;60173;52.112;8.648;2023-06-10T05:47:53;11.20;;;5.28;;
72261;SDS011;60173;52.112;8.648;2023-06-10T05:50:19;9.00;;;5.18;;
72261;SDS011;60173;52.112;8.648;2023-06-10T05:52:46;7.47;;;4.93;;
72261;SDS011;60173;52.112;8.648;2023-06-10T05:55:12;10.75;;;4.82;;
72261;SDS011;60173;52.112;8.648;2023-06-10T05:57:41;9.18;;;4.90;;
72261;SDS011;60173;52.112;8.648;2023-06-10T06:00:08;11.13;;;5.07;;
72261;SDS011;60173;52.112;8.648;2023-06-10T06:02:34;11.23;;;5.45;;
72261;SDS011;60173;52.112;8.648;2023-06-10T06:05:01;12.23;;;5.45;;
72261;SDS011;60173;52.112;8.648;2023-06-10T06:07:27;10.98;;;5.22;;
72261;SDS011;60173;52.112;8.648;2023-06-10T06:09:54;13.40;;;5.30;;
72261;SDS011;60173;52.112;8.648;2023-06-10T06:12:20;10.93;;;5.10;;
72261;SDS011;60173;52.112;8.648;2023-06-10T06:14:46;8.38;;;5.28;;
72261;SDS011;60173;52.112;8.648;2023-06-10T06:17:13;8.57;;;5.10;;
72261;SDS011;60173;52.112;8.648;2023-06-10T06:19:39;10.13;;;4.88;;
72261;SDS011;60173;52.112;8.648;2023-06-10T06:22:06;11.90;;;5.63;;
72261;SDS011;60173;52.112;8.648;2023-06-10T06:24:32;9.23;;;5.75;;
72261;SDS011;60173;52.112;8.648;2023-06-10T06:26:59;8.55;;;4.78;;
72261;SDS011;60173;52.112;8.648;2023-06-10T06:29:25;12.25;;;5.30;;
72261;SDS011;60173;52.112;8.648;2023-06-10T06:31:52;11.98;;;5.95;;
72261;SDS011;60173;52.112;8.648;2023-06-10T06:34:18;9.85;;;4.97;;
72261;SDS011;60173;52.112;8.648;2023-06-10T06:36:45;10.48;;;5.70;;
72261;SDS011;60173;52.112;8.648;2023-06-10T06:39:11;15.50;;;5.10;;
72261;SDS011;60173;52.112;8.648;2023-06-10T06:41:38;10.77;;;5.22;;
72261;SDS011;60173;52.112;8.648;2023-06-10T06:44:04;10.23;;;5.15;;
72261;SDS011;60173;52.112;8.648;2023-06-10T06:46:30;11.07;;;5.10;;
72261;SDS011;60173;52.112;8.648;2023-06-10T06:48:57;10.88;;;4.93;;
72261;SDS011;60173;52.112;8.648;2023-06-10T06:51:23;8.43;;;5.05;;
72261;SDS011;60173;52.112;8.648;2023-06-10T06:53:50;13.20;;;5.18;;
72261;SDS011;60173;52.112;8.648;2023-06-10T06:56:16;16.30;;;5.20;;
72261;SDS011;60173;52.112;8.648;2023-06-10T06:58:42;12.02;;;5.10;;
72261;SDS011;60173;52.112;8.648;2023-06-10T07:01:09;9.02;;;5.00;;
72261;SDS011;60173;52.112;8.648;2023-06-10T07:03:35;9.88;;;5.18;;
72261;SDS011;60173;52.112;8.648;2023-06-10T07:06:02;11.27;;;5.57;;
72261;SDS011;60173;52.112;8.648;2023-06-10T07:08:28;10.20;;;5.30;;
72261;SDS011;60173;52.112;8.648;2023-06-10T07:10:54;12.60;;;5.47;;
72261;SDS011;60173;52.112;8.648;2023-06-10T07:13:21;11.35;;;5.53;;
72261;SDS011;60173;52.112;8.648;2023-06-10T07:15:47;9.93;;;5.15;;
72261;SDS011;60173;52.112;8.648;2023-06-10T07:18:14;15.57;;;5.78;;
72261;SDS011;60173;52.112;8.648;2023-06-10T07:20:41;10.32;;;5.00;;
72261;SDS011;60173;52.112;8.648;2023-06-10T07:23:08;9.88;;;5.15;;
72261;SDS011;60173;52.112;8.648;2023-06-10T07:25:34;13.27;;;4.97;;
72261;SDS011;60173;52.112;8.648;2023-06-10T07:28:00;11.60;;;5.22;;
72261;SDS011;60173;52.112;8.648;2023-06-10T07:30:27;13.02;;;5.35;;
72261;SDS011;60173;52.112;8.648;2023-06-10T07:32:54;13.57;;;4.75;;
72261;SDS011;60173;52.112;8.648;2023-06-10T07:35:20;11.90;;;5.28;;
72261;SDS011;60173;52.112;8.648;2023-06-10T07:37:47;14.30;;;4.60;;
72261;SDS011;60173;52.112;8.648;2023-06-10T07:40:13;9.55;;;4.80;;
72261;SDS011;60173;52.112;8.648;2023-06-10T07:42:39;9.98;;;5.13;;
72261;SDS011;60173;52.112;8.648;2023-06-10T07:45:06;13.18;;;5.07;;
72261;SDS011;60173;52.112;8.648;2023-06-10T07:47:33;10.35;;;4.68;;
72261;SDS011;60173;52.112;8.648;2023-06-10T07:50:00;10.07;;;5.00;;
72261;SDS011;60173;52.112;8.648;2023-06-10T07:52:27;11.85;;;5.45;;
72261;SDS011;60173;52.112;8.648;2023-06-10T07:54:53;9.30;;;4.90;;
72261;SDS011;60173;52.112;8.648;2023-06-10T07:57:20;11.13;;;4.88;;
72261;SDS011;60173;52.112;8.648;2023-06-10T07:59:46;9.13;;;4.47;;
72261;SDS011;60173;52.112;8.648;2023-06-10T08:02:12;10.02;;;4.97;;
72261;SDS011;60173;52.112;8.648;2023-06-10T08:04:39;14.05;;;5.45;;
72261;SDS011;60173;52.112;8.648;2023-06-10T08:07:05;11.07;;;5.18;;
72261;SDS011;60173;52.112;8.648;2023-06-10T08:09:32;8.70;;;4.88;;
72261;SDS011;60173;52.112;8.648;2023-06-10T08:11:58;11.27;;;4.80;;
72261;SDS011;60173;52.112;8.648;2023-06-10T08:14:24;8.60;;;4.50;;
72261;SDS011;60173;52.112;8.648;2023-06-10T08:16:51;9.50;;;4.53;;
72261;SDS011;60173;52.112;8.648;2023-06-10T08:19:17;6.88;;;4.13;;
72261;SDS011;60173;52.112;8.648;2023-06-10T08:21:44;9.98;;;4.60;;
72261;SDS011;60173;52.112;8.648;2023-06-10T08:24:10;7.70;;;4.43;;
72261;SDS011;60173;52.112;8.648;2023-06-10T08:26:37;9.40;;;4.15;;
72261;SDS011;60173;52.112;8.648;2023-06-10T08:29:04;6.72;;;4.25;;
72261;SDS011;60173;52.112;8.648;2023-06-10T08:31:31;10.77;;;5.10;;
72261;SDS011;60173;52.112;8.648;2023-06-10T08:33:57;10.07;;;4.93;;
72261;SDS011;60173;52.112;8.648;2023-06-10T08:36:24;12.48;;;5.45;;
72261;SDS011;60173;52.112;8.648;2023-06-10T08:38:50;9.15;;;4.70;;
72261;SDS011;60173;52.112;8.648;2023-06-10T08:41:17;8.43;;;4.53;;
72261;SDS011;60173;52.112;8.648;2023-06-10T08:43:45;9.13;;;4.93;;
72261;SDS011;60173;52.112;8.648;2023-06-10T08:46:14;9.30;;;5.03;;
72261;SDS011;60173;52.112;8.648;2023-06-10T08:48:44;7.72;;;4.78;;
72261;SDS011;60173;52.112;8.648;2023-06-10T08:51:14;13.07;;;5.63;;
72261;SDS011;60173;52.112;8.648;2023-06-10T08:53:46;12.55;;;6.00;;
72261;SDS011;60173;52.112;8.648;2023-06-10T08:56:18;10.23;;;5.45;;
72261;SDS011;60173;52.112;8.648;2023-06-10T08:58:47;10.25;;;5.15;;
72261;SDS011;60173;52.112;8.648;2023-06-10T09:01:14;9.95;;;5.70;;
72261;SDS011;60173;52.112;8.648;2023-06-10T09:03:40;11.57;;;5.78;;
72261;SDS011;60173;52.112;8.648;2023-06-10T09:06:08;13.07;;;5.95;;
72261;SDS011;60173;52.112;8.648;2023-06-10T09:08:35;10.55;;;5.40;;
72261;SDS011;60173;52.112;8.648;2023-06-10T09:11:01;11.23;;;6.15;;
72261;SDS011;60173;52.112;8.648;2023-06-10T09:13:28;11.20;;;5.22;;
72261;SDS011;60173;52.112;8.648;2023-06-10T09:15:55;10.35;;;6.22;;
72261;SDS011;60173;52.112;8.648;2023-06-10T09:18:22;10.80;;;5.90;;
72261;SDS011;60173;52.112;8.648;2023-06-10T09:20:49;10.27;;;6.20;;
72261;SDS011;60173;52.112;8.648;2023-06-10T09:23:15;11.35;;;6.50;;
72261;SDS011;60173;52.112;8.648;2023-06-10T09:25:42;12.30;;;6.43;;
72261;SDS011;60173;52.112;8.648;2023-06-10T09:28:15;13.35;;;6.40;;
72261;SDS011;60173;52.112;8.648;2023-06-10T09:30:42;11.82;;;6.10;;
72261;SDS011;60173;52.112;8.648;2023-06-10T09:33:12;12.57;;;6.22;;
72261;SDS011;60173;52.112;8.648;2023-06-10T09:35:47;12.90;;;7.20;;
72261;SDS011;60173;52.112;8.648;2023-06-10T09:40:49;14.70;;;6.20;;
72261;SDS011;60173;52.112;8.648;2023-06-10T09:43:17;12.68;;;6.05;;
72261;SDS011;60173;52.112;8.648;2023-06-10T09:45:43;10.45;;;5.78;;
72261;SDS011;60173;52.112;8.648;2023-06-10T09:48:10;12.75;;;6.22;;
72261;SDS011;60173;52.112;8.648;2023-06-10T09:50:43;11.93;;;6.68;;
72261;SDS011;60173;52.112;8.648;2023-06-10T09:53:10;11.93;;;6.55;;
72261;SDS011;60173;52.112;8.648;2023-06-10T09:55:40;12.60;;;6.82;;
72261;SDS011;60173;52.112;8.648;2023-06-10T09:58:07;9.55;;;5.80;;
72261;SDS011;60173;52.112;8.648;2023-06-10T10:00:34;12.52;;;6.20;;
72261;SDS011;60173;52.112;8.648;2023-06-10T10:03:00;12.57;;;5.70;;
72261;SDS011;60173;52.112;8.648;2023-06-10T10:05:27;9.32;;;5.93;;
72261;SDS011;60173;52.112;8.648;2023-06-10T10:07:54;10.43;;;5.50;;
72261;SDS011;60173;52.112;8.648;2023-06-10T10:10:20;9.27;;;5.78;;
72261;SDS011;60173;52.112;8.648;2023-06-10T10:12:48;9.90;;;5.22;;
72261;SDS011;60173;52.112;8.648;2023-06-10T10:15:17;10.40;;;5.68;;
72261;SDS011;60173;52.112;8.648;2023-06-10T10:17:53;8.23;;;5.35;;
72261;SDS011;60173;52.112;8.648;2023-06-10T10:20:26;11.98;;;5.32;;
72261;SDS011;60173;52.112;8.648;2023-06-10T10:22:56;9.65;;;5.38;;
72261;SDS011;60173;52.112;8.648;2023-06-10T10:25:24;9.82;;;5.30;;
72261;SDS011;60173;52.112;8.648;2023-06-10T10:27:55;7.38;;;4.80;;
72261;SDS011;60173;52.112;8.648;2023-06-10T10:30:25;8.43;;;4.95;;
72261;SDS011;60173;52.112;8.648;2023-06-10T10:33:06;11.00;;;5.38;;
72261;SDS011;60173;52.112;8.648;2023-06-10T10:35:36;9.75;;;5.70;;
72261;SDS011;60173;52.112;8.648;2023-06-10T10:38:04;9.18;;;5.35;;
72261;SDS011;60173;52.112;8.648;2023-06-10T10:40:32;8.18;;;4.82;;
72261;SDS011;60173;52.112;8.648;2023-06-10T10:42:59;9.85;;;5.05;;
72261;SDS011;60173;52.112;8.648;2023-06-10T10:45:27;12.48;;;5.10;;
72261;SDS011;60173;52.112;8.648;2023-06-10T10:47:54;9.23;;;5.28;;
72261;SDS011;60173;52.112;8.648;2023-06-10T10:50:22;8.80;;;5.80;;
72261;SDS011;60173;52.112;8.648;2023-06-10T10:53:01;8.20;;;4.32;;
72261;SDS011;60173;52.112;8.648;2023-06-10T10:55:29;8.60;;;5.38;;
72261;SDS011;60173;52.112;8.648;2023-06-10T10:57:56;10.57;;;5.03;;
72261;SDS011;60173;52.112;8.648;2023-06-10T11:00:27;12.02;;;4.95;;
72261;SDS011;60173;52.112;8.648;2023-06-10T11:02:58;9.18;;;4.45;;
72261;SDS011;60173;52.112;8.648;2023-06-10T11:05:39;9.52;;;5.13;;
72261;SDS011;60173;52.112;8.648;2023-06-10T11:08:08;9.55;;;4.88;;
72261;SDS011;60173;52.112;8.648;2023-06-10T11:10:35;13.05;;;4.88;;
72261;SDS011;60173;52.112;8.648;2023-06-10T11:13:06;7.25;;;4.95;;
72261;SDS011;60173;52.112;8.648;2023-06-10T11:15:33;8.32;;;4.78;;
72261;SDS011;60173;52.112;8.648;2023-06-10T11:18:08;10.82;;;5.10;;
72261;SDS011;60173;52.112;8.648;2023-06-10T11:23:26;8.30;;;4.53;;
72261;SDS011;60173;52.112;8.648;2023-06-10T11:28:38;9.70;;;4.60;;
72261;SDS011;60173;52.112;8.648;2023-06-10T11:31:05;9.10;;;4.40;;
72261;SDS011;60173;52.112;8.648;2023-06-10T11:33:32;6.53;;;3.95;;
72261;SDS011;60173;52.112;8.648;2023-06-10T11:35:59;6.22;;;3.88;;
72261;SDS011;60173;52.112;8.648;2023-06-10T11:38:25;8.90;;;4.60;;
72261;SDS011;60173;52.112;8.648;2023-06-10T11:40:52;8.40;;;4.53;;
72261;SDS011;60173;52.112;8.648;2023-06-10T11:43:19;8.60;;;4.10;;
72261;SDS011;60173;52.112;8.648;2023-06-10T11:45:46;8.90;;;4.25;;
72261;SDS011;60173;52.112;8.648;2023-06-10T11:48:12;6.57;;;3.90;;
72261;SDS011;60173;52.112;8.648;2023-06-10T11:50:39;9.95;;;3.85;;
72261;SDS011;60173;52.112;8.648;2023-06-10T11:53:07;5.68;;;3.67;;
72261;SDS011;60173;52.112;8.648;2023-06-10T11:55:44;7.75;;;4.20;;
72261;SDS011;60173;52.112;8.648;2023-06-10T11:58:21;9.20;;;3.80;;
72261;SDS011;60173;52.112;8.648;2023-06-10T12:00:49;9.23;;;4.57;;
72261;SDS011;60173;52.112;8.648;2023-06-10T12:03:20;7.35;;;4.30;;
72261;SDS011;60173;52.112;8.648;2023-06-10T12:05:56;4.80;;;3.83;;
72261;SDS011;60173;52.112;8.648;2023-06-10T12:08:24;8.52;;;4.47;;
72261;SDS011;60173;52.112;8.648;2023-06-10T12:10:51;9.02;;;4.38;;
72261;SDS011;60173;52.112;8.648;2023-06-10T12:13:17;8.00;;;5.03;;
72261;SDS011;60173;52.112;8.648;2023-06-10T12:15:44;7.15;;;4.45;;
72261;SDS011;60173;52.112;8.648;2023-06-10T12:18:17;7.88;;;4.70;;
72261;SDS011;60173;52.112;8.648;2023-06-10T12:20:50;9.48;;;4.85;;
72261;SDS011;60173;52.112;8.648;2023-06-10T12:23:17;8.15;;;4.68;;
72261;SDS011;60173;52.112;8.648;2023-06-10T12:25:51;7.75;;;4.72;;
72261;SDS011;60173;52.112;8.648;2023-06-10T12:28:21;7.90;;;4.50;;
72261;SDS011;60173;52.112;8.648;2023-06-10T12:31:05;7.25;;;4.82;;
72261;SDS011;60173;52.112;8.648;2023-06-10T12:33:33;7.78;;;4.30;;
72261;SDS011;60173;52.112;8.648;2023-06-10T12:36:00;8.38;;;5.72;;
72261;SDS011;60173;52.112;8.648;2023-06-10T12:38:26;8.60;;;4.57;;
72261;SDS011;60173;52.112;8.648;2023-06-10T12:40:53;6.95;;;4.20;;
72261;SDS011;60173;52.112;8.648;2023-06-10T12:43:20;7.03;;;3.97;;
72261;SDS011;60173;52.112;8.648;2023-06-10T12:45:46;7.47;;;4.07;;
72261;SDS011;60173;52.112;8.648;2023-06-10T12:48:22;7.65;;;4.10;;
72261;SDS011;60173;52.112;8.648;2023-06-10T12:50:53;6.82;;;4.03;;
72261;SDS011;60173;52.112;8.648;2023-06-10T12:53:24;9.10;;;4.50;;
72261;SDS011;60173;52.112;8.648;2023-06-10T12:55:51;4.95;;;3.95;;
72261;SDS011;60173;52.112;8.648;2023-06-10T12:58:18;6.93;;;4.18;;
72261;SDS011;60173;52.112;8.648;2023-06-10T13:00:46;6.13;;;4.07;;
72261;SDS011;60173;52.112;8.648;2023-06-10T13:03:12;9.13;;;4.80;;
72261;SDS011;60173;52.112;8.648;2023-06-10T13:05:39;7.28;;;4.35;;
72261;SDS011;60173;52.112;8.648;2023-06-10T13:08:06;7.32;;;4.15;;
72261;SDS011;60173;52.112;8.648;2023-06-10T13:10:33;8.32;;;4.53;;
72261;SDS011;60173;52.112;8.648;2023-06-10T13:13:00;9.23;;;4.53;;
72261;SDS011;60173;52.112;8.648;2023-06-10T13:15:27;9.10;;;5.20;;
72261;SDS011;60173;52.112;8.648;2023-06-10T13:17:53;13.07;;;5.15;;
72261;SDS011;60173;52.112;8.648;2023-06-10T13:20:20;6.05;;;4.45;;
72261;SDS011;60173;52.112;8.648;2023-06-10T13:22:46;9.57;;;5.32;;
72261;SDS011;60173;52.112;8.648;2023-06-10T13:25:12;6.82;;;4.88;;
72261;SDS011;60173;52.112;8.648;2023-06-10T13:27:40;7.53;;;4.80;;
72261;SDS011;60173;52.112;8.648;2023-06-10T13:30:06;10.48;;;5.20;;
72261;SDS011;60173;52.112;8.648;2023-06-10T13:32:35;6.93;;;4.75;;
72261;SDS011;60173;52.112;8.648;2023-06-10T13:35:02;5.75;;;4.78;;
72261;SDS011;60173;52.112;8.648;2023-06-10T13:37:30;12.45;;;5.40;;
72261;SDS011;60173;52.112;8.648;2023-06-10T13:39:56;8.43;;;5.10;;
72261;SDS011;60173;52.112;8.648;2023-06-10T13:42:23;9.23;;;4.80;;
72261;SDS011;60173;52.112;8.648;2023-06-10T13:44:49;9.63;;;4.85;;
72261;SDS011;60173;52.112;8.648;2023-06-10T13:47:16;6.95;;;4.90;;
72261;SDS011;60173;52.112;8.648;2023-06-10T13:49:42;6.82;;;5.10;;
72261;SDS011;60173;52.112;8.648;2023-06-10T13:52:09;9.07;;;5.18;;
72261;SDS011;60173;52.112;8.648;2023-06-10T13:54:35;8.23;;;4.65;;
72261;SDS011;60173;52.112;8.648;2023-06-10T13:57:02;10.18;;;5.10;;
72261;SDS011;60173;52.112;8.648;2023-06-10T13:59:28;7.18;;;4.90;;
72261;SDS011;60173;52.112;8.648;2023-06-10T14:01:55;9.98;;;4.72;;
72261;SDS011;60173;52.112;8.648;2023-06-10T14:04:21;5.70;;;4.90;;
72261;SDS011;60173;52.112;8.648;2023-06-10T14:06:48;9.85;;;4.65;;
72261;SDS011;60173;52.112;8.648;2023-06-10T14:09:14;8.98;;;4.95;;
72261;SDS011;60173;52.112;8.648;2023-06-10T14:11:41;5.78;;;4.47;;
72261;SDS011;60173;52.112;8.648;2023-06-10T14:14:07;6.80;;;5.30;;
72261;SDS011;60173;52.112;8.648;2023-06-10T14:16:34;6.93;;;4.53;;
72261;SDS011;60173;52.112;8.648;2023-06-10T14:19:00;9.15;;;5.43;;
72261;SDS011;60173;52.112;8.648;2023-06-10T14:21:26;8.77;;;5.20;;
72261;SDS011;60173;52.112;8.648;2023-06-10T14:23:53;7.07;;;4.70;;
72261;SDS011;60173;52.112;8.648;2023-06-10T14:26:19;7.25;;;5.45;;
72261;SDS011;60173;52.112;8.648;2023-06-10T14:28:46;9.60;;;5.43;;
72261;SDS011;60173;52.112;8.648;2023-06-10T14:31:12;9.40;;;5.60;;
72261;SDS011;60173;52.112;8.648;2023-06-10T14:33:38;8.57;;;5.25;;
72261;SDS011;60173;52.112;8.648;2023-06-10T14:36:05;11.20;;;5.45;;
72261;SDS011;60173;52.112;8.648;2023-06-10T14:38:31;9.10;;;5.68;;
72261;SDS011;60173;52.112;8.648;2023-06-10T14:40:57;9.80;;;5.55;;
72261;SDS011;60173;52.112;8.648;2023-06-10T14:43:24;9.93;;;5.95;;
72261;SDS011;60173;52.112;8.648;2023-06-10T14:45:50;10.00;;;5.70;;
72261;SDS011;60173;52.112;8.648;2023-06-10T14:48:17;10.18;;;6.40;;
72261;SDS011;60173;52.112;8.648;2023-06-10T14:50:43;8.18;;;5.97;;